createdAt,value
2024-05-09T00:01:35.353Z,8.51
2024-05-09T00:06:37.194Z,8.41
2024-05-09T00:11:38.907Z,8.29
2024-05-09T00:16:40.655Z,8.20
2024-05-09T00:21:45.102Z,8.16
2024-05-09T00:26:46.880Z,8.11
2024-05-09T00:31:48.766Z,8.07
2024-05-09T00:36:50.553Z,8.05
2024-05-09T00:41:52.324Z,8.01
2024-05-09T00:46:55.309Z,7.96
2024-05-09T00:51:57.606Z,7.87
2024-05-09T00:56:59.676Z,7.77
2024-05-09T01:02:01.389Z,7.66
2024-05-09T01:07:03.502Z,7.51
2024-05-09T01:12:05.508Z,7.31
2024-05-09T01:17:07.594Z,7.15
2024-05-09T01:22:09.785Z,7.04
2024-05-09T01:27:11.558Z,7.04
2024-05-09T01:32:13.527Z,7.07
2024-05-09T01:37:15.389Z,7.05
2024-05-09T01:42:17.120Z,6.99
2024-05-09T01:47:18.800Z,6.96
2024-05-09T01:52:20.592Z,6.98
2024-05-09T01:57:22.311Z,7.04
2024-05-09T02:02:24.214Z,7.10
2024-05-09T02:07:26.471Z,7.15
2024-05-09T02:12:28.394Z,7.14
2024-05-09T02:17:30.368Z,7.06
2024-05-09T02:22:32.396Z,6.97
2024-05-09T02:27:34.088Z,6.92
2024-05-09T02:32:36.046Z,6.89
2024-05-09T02:37:37.926Z,6.85
2024-05-09T02:42:39.491Z,6.81
2024-05-09T02:47:41.246Z,6.78
2024-05-09T02:52:43.202Z,6.75
2024-05-09T02:57:45.082Z,6.74
2024-05-09T03:02:46.789Z,6.78
2024-05-09T03:07:48.818Z,6.75
2024-05-09T03:12:50.743Z,6.69
2024-05-09T03:17:52.701Z,6.59
2024-05-09T03:22:56.736Z,6.51
2024-05-09T03:27:59.106Z,6.54
2024-05-09T03:33:01.162Z,6.63
2024-05-09T03:38:03.014Z,6.65
2024-05-09T03:43:04.817Z,6.63
2024-05-09T03:48:07.459Z,6.61
2024-05-09T03:53:13.346Z,6.64
2024-05-09T03:58:15.289Z,6.72
2024-05-09T04:03:17.122Z,6.84
2024-05-09T04:08:19.031Z,7.11
2024-05-09T04:13:21.155Z,8.22
2024-05-09T04:18:22.974Z,10.08
2024-05-09T04:23:24.888Z,11.59
2024-05-09T04:28:26.806Z,11.74
2024-05-09T04:33:29.476Z,11.56
2024-05-09T04:38:31.362Z,12.04
2024-05-09T04:43:35.012Z,12.01
2024-05-09T04:48:36.766Z,12.61
2024-05-09T04:53:38.559Z,13.29
2024-05-09T04:58:40.448Z,14.95
2024-05-09T05:03:42.682Z,17.15
2024-05-09T05:08:44.572Z,19.25
2024-05-09T05:13:46.505Z,20.97
2024-05-09T05:18:48.221Z,22.31
2024-05-09T05:23:50.127Z,23.49
2024-05-09T05:28:51.966Z,24.36
2024-05-09T05:33:54.029Z,25.23
2024-05-09T05:38:56.012Z,25.96
2024-05-09T05:43:57.998Z,26.59
2024-05-09T05:48:59.835Z,27.13
2024-05-09T05:54:01.554Z,27.59
2024-05-09T05:59:03.316Z,28.07
2024-05-09T06:04:05.213Z,28.45
2024-05-09T06:09:07.178Z,28.60
2024-05-09T06:14:09.292Z,28.77
2024-05-09T06:19:11.211Z,29.08
2024-05-09T06:24:13.020Z,29.44
2024-05-09T06:29:14.659Z,29.60
2024-05-09T06:34:20.737Z,29.72
2024-05-09T06:39:23.574Z,29.80
2024-05-09T06:44:25.221Z,29.84
2024-05-09T06:49:29.278Z,29.83
2024-05-09T06:54:31.019Z,29.84
2024-05-09T06:59:32.845Z,29.90
2024-05-09T07:04:34.808Z,29.98
2024-05-09T07:09:37.430Z,30.17
2024-05-09T07:14:39.259Z,30.21
2024-05-09T07:19:41.624Z,30.09
2024-05-09T07:24:43.386Z,30.13
2024-05-09T07:29:45.080Z,30.21
2024-05-09T07:34:46.809Z,30.29
2024-05-09T07:39:48.614Z,30.48
2024-05-09T07:44:50.187Z,30.72
2024-05-09T07:51:32.767Z,30.71
2024-05-09T07:55:13.592Z,30.66
2024-05-09T08:00:20.390Z,30.64
2024-05-09T08:05:28.781Z,30.03
2024-05-09T08:10:30.913Z,29.69
2024-05-09T08:15:32.788Z,29.59
2024-05-09T08:20:37.890Z,29.76
2024-05-09T08:25:39.649Z,29.93
2024-05-09T08:30:41.648Z,29.96
2024-05-09T08:35:43.392Z,29.93
2024-05-09T08:40:45.300Z,29.66
2024-05-09T08:45:49.597Z,29.43
2024-05-09T08:50:54.855Z,29.13
2024-05-09T08:56:01.649Z,28.84
2024-05-09T09:01:07.455Z,28.66
2024-05-09T09:06:12.546Z,28.45
2024-05-09T09:11:14.480Z,28.02
2024-05-09T09:16:16.967Z,27.82
2024-05-09T09:21:18.763Z,27.87
2024-05-09T09:26:20.503Z,27.42
2024-05-09T09:31:22.138Z,26.84
2024-05-09T09:36:28.070Z,26.68
2024-05-09T09:41:30.233Z,26.70
2024-05-09T09:46:32.798Z,26.33
2024-05-09T09:51:35.781Z,25.78
2024-05-09T09:56:39.373Z,25.15
2024-05-09T10:01:43.904Z,24.55
2024-05-09T10:06:50.327Z,23.84
2024-05-09T10:11:59.664Z,23.15
2024-05-09T10:17:05.415Z,22.59
2024-05-09T10:22:10.961Z,22.29
2024-05-09T10:27:12.788Z,22.26
2024-05-09T10:32:16.136Z,22.05
2024-05-09T10:37:17.943Z,21.90
2024-05-09T10:42:20.029Z,21.85
2024-05-09T10:47:22.265Z,21.84
2024-05-09T10:52:24.973Z,21.92
2024-05-09T10:57:27.005Z,21.86
2024-05-09T11:02:29.005Z,21.61
2024-05-09T11:07:31.162Z,21.24
2024-05-09T11:12:33.236Z,21.07
2024-05-09T11:17:37.863Z,20.97
2024-05-09T11:22:39.608Z,20.85
2024-05-09T11:27:42.306Z,20.92
2024-05-09T11:32:44.126Z,21.11
2024-05-09T11:37:47.482Z,21.13
2024-05-09T11:42:51.508Z,20.88
2024-05-09T11:47:54.798Z,20.73
2024-05-09T11:52:56.527Z,20.83
2024-05-09T11:57:58.344Z,20.74
2024-05-09T12:03:00.215Z,20.75
2024-05-09T12:08:02.415Z,20.79
2024-05-09T12:13:06.562Z,20.82
2024-05-09T12:18:09.306Z,20.89
2024-05-09T12:23:11.275Z,20.86
2024-05-09T12:28:13.109Z,20.80
2024-05-09T12:33:15.343Z,20.69
2024-05-09T12:38:18.173Z,20.61
2024-05-09T12:43:19.922Z,20.50
2024-05-09T12:48:21.961Z,20.54
2024-05-09T12:53:23.902Z,20.47
2024-05-09T12:58:25.808Z,20.41
2024-05-09T13:03:27.538Z,20.40
2024-05-09T13:08:29.260Z,20.44
2024-05-09T13:13:30.866Z,20.47
2024-05-09T13:18:33.354Z,20.66
2024-05-09T13:23:37.825Z,20.72
2024-05-09T13:28:39.615Z,20.75
2024-05-09T13:33:41.454Z,20.80
2024-05-09T13:38:43.317Z,20.93
2024-05-09T13:43:45.050Z,21.14
2024-05-09T13:48:46.880Z,21.14
2024-05-09T13:53:48.771Z,21.12
2024-05-09T13:58:51.896Z,21.17
2024-05-09T14:03:53.813Z,21.24
2024-05-09T14:08:55.719Z,21.22
2024-05-09T14:13:57.423Z,21.22
2024-05-09T14:18:59.539Z,21.35
2024-05-09T14:24:01.481Z,21.44
2024-05-09T14:29:03.270Z,21.40
2024-05-09T14:34:05.134Z,21.29
2024-05-09T14:39:06.942Z,21.25
2024-05-09T14:44:08.524Z,21.31
2024-05-09T14:49:12.310Z,21.37
2024-05-09T14:54:14.458Z,21.35
2024-05-09T14:59:16.319Z,21.16
2024-05-09T15:04:18.167Z,21.03
2024-05-09T15:09:19.923Z,20.97
2024-05-09T15:14:23.121Z,20.84
2024-05-09T15:19:24.856Z,20.57
2024-05-09T15:24:26.661Z,20.31
2024-05-09T15:29:29.501Z,20.01
2024-05-09T15:34:31.323Z,19.71
2024-05-09T15:39:33.262Z,19.41
2024-05-09T15:44:35.778Z,19.22
2024-05-09T15:49:37.705Z,19.11
2024-05-09T15:54:39.717Z,19.02
2024-05-09T15:59:41.609Z,18.95
2024-05-09T16:04:43.355Z,18.90
2024-05-09T16:09:45.378Z,18.88
2024-05-09T16:14:47.468Z,18.78
2024-05-09T16:19:49.279Z,18.73
2024-05-09T16:24:51.171Z,18.72
2024-05-09T16:29:53.147Z,18.74
2024-05-09T16:34:54.851Z,18.75
2024-05-09T16:39:56.580Z,18.72
2024-05-09T16:44:58.375Z,18.64
2024-05-09T16:50:00.054Z,18.52
2024-05-09T16:55:01.985Z,18.35
2024-05-09T17:00:09.215Z,18.18
2024-05-09T17:05:14.290Z,18.00
2024-05-09T17:10:26.402Z,17.81
2024-05-09T17:15:33.803Z,17.61
2024-05-09T17:20:37.360Z,17.43
2024-05-09T17:25:40.015Z,17.25
2024-05-09T17:30:42.823Z,17.07
2024-05-09T17:35:45.810Z,16.88
2024-05-09T17:40:47.775Z,16.69
2024-05-09T17:45:49.556Z,16.50
2024-05-09T17:50:51.639Z,16.31
2024-05-09T17:55:55.686Z,16.14
2024-05-09T18:00:57.455Z,15.93
2024-05-09T18:05:59.742Z,15.74
2024-05-09T18:11:01.682Z,15.52
2024-05-09T18:16:03.915Z,15.31
2024-05-09T18:21:05.806Z,15.09
2024-05-09T18:26:08.629Z,14.90
2024-05-09T18:31:10.824Z,14.68
2024-05-09T18:36:12.713Z,14.47
2024-05-09T18:41:14.706Z,14.26
2024-05-09T18:46:16.423Z,14.07
2024-05-09T18:51:18.312Z,13.89
2024-05-09T18:56:20.280Z,13.71
2024-05-09T19:01:21.881Z,13.53
2024-05-09T19:06:24.760Z,13.35
2024-05-09T19:11:26.583Z,13.18
2024-05-09T19:16:28.378Z,13.00
2024-05-09T19:21:30.895Z,12.86
2024-05-09T19:26:32.652Z,12.71
2024-05-09T19:31:34.300Z,12.57
2024-05-09T19:36:36.170Z,12.44
2024-05-09T19:41:37.981Z,12.32
2024-05-09T19:46:39.730Z,12.19
2024-05-09T19:51:41.644Z,12.06
2024-05-09T19:56:45.181Z,11.93
2024-05-09T20:01:48.061Z,11.80
2024-05-09T20:06:50.605Z,11.67
2024-05-09T20:11:52.328Z,11.54
2024-05-09T20:16:54.127Z,11.44
2024-05-09T20:21:55.902Z,11.34
2024-05-09T20:26:57.561Z,11.24
2024-05-09T20:31:59.197Z,11.15
2024-05-09T20:37:00.873Z,11.06
2024-05-09T20:42:02.689Z,10.97
2024-05-09T20:47:04.517Z,10.86
2024-05-09T20:52:06.512Z,10.77
2024-05-09T20:57:08.205Z,10.65
2024-05-09T21:02:10.203Z,10.53
2024-05-09T21:07:11.997Z,10.43
2024-05-09T21:12:13.710Z,10.31
2024-05-09T21:17:15.515Z,10.16
2024-05-09T21:22:17.382Z,10.02
2024-05-09T21:27:19.252Z,9.90
2024-05-09T21:32:21.230Z,9.82
2024-05-09T21:37:23.226Z,9.76
2024-05-09T21:42:25.280Z,9.67
2024-05-09T21:47:27.056Z,9.58
2024-05-09T21:52:29.219Z,9.51
2024-05-09T21:57:30.809Z,9.41
2024-05-09T22:02:32.559Z,9.29
2024-05-09T22:07:34.252Z,9.18
2024-05-09T22:12:35.965Z,9.09
2024-05-09T22:17:40.917Z,9.02
2024-05-09T22:22:42.765Z,8.96
2024-05-09T22:27:44.366Z,8.90
2024-05-09T22:32:46.220Z,8.85
2024-05-09T22:37:47.928Z,8.80
2024-05-09T22:42:49.759Z,8.76
2024-05-09T22:47:51.483Z,8.69
2024-05-09T22:52:53.200Z,8.63
2024-05-09T22:57:54.916Z,8.58
2024-05-09T23:02:56.724Z,8.56
2024-05-09T23:07:58.481Z,8.56
2024-05-09T23:13:00.246Z,8.59
2024-05-09T23:18:02.395Z,8.55
2024-05-09T23:23:07.178Z,8.49
2024-05-09T23:28:10.633Z,8.43
2024-05-09T23:33:13.624Z,8.36
2024-05-09T23:38:15.989Z,8.28
2024-05-09T23:43:18.694Z,8.19
2024-05-09T23:48:20.606Z,8.12
2024-05-09T23:53:22.465Z,8.03
2024-05-09T23:58:25.911Z,7.95
